Time;durP1;ratioP1;P1;durP2;ratioP2;P2;SDS_P1;SDS_P2;PMS_P1;PMS_P2;Temp;Humidity;BMP_temperature;BMP_pressure;BME280_temperature;BME280_humidity;BME280_pressure;Samples;Min_cycle;Max_cycle;Signal;HPM_P1;HPM_P2
2023/08/02 00:01:06;;;;;;;1.98;1.83;;;21.70;99.90;;;;;;5090914;28;20256;-72
2023/08/02 00:03:33;;;;;;;3.13;1.90;;;21.70;99.90;;;;;;5090201;28;20264;-72
2023/08/02 00:06:00;;;;;;;3.22;1.85;;;21.70;99.90;;;;;;5090657;28;20244;-71
2023/08/02 00:08:27;;;;;;;4.25;1.80;;;21.70;99.90;;;;;;5090518;28;20239;-73
2023/08/02 00:10:55;;;;;;;2.33;1.80;;;21.70;99.90;;;;;;5090320;28;20201;-72
2023/08/02 00:13:23;;;;;;;1.95;1.55;;;21.60;99.90;;;;;;5090651;28;20240;-72
2023/08/02 00:15:51;;;;;;;2.35;1.65;;;21.60;99.90;;;;;;5090209;28;20241;-73
2023/08/02 00:18:18;;;;;;;2.40;2.03;;;21.60;99.90;;;;;;5090288;28;20290;-73
2023/08/02 00:20:45;;;;;;;5.15;2.60;;;21.50;99.90;;;;;;5090360;28;20256;-73
2023/08/02 00:23:12;;;;;;;3.88;1.83;;;21.50;99.90;;;;;;5090794;28;20265;-73
2023/08/02 00:25:39;;;;;;;3.88;2.03;;;21.50;99.90;;;;;;5090672;28;20244;-73
2023/08/02 00:28:06;;;;;;;2.55;1.90;;;21.50;99.90;;;;;;5090508;28;20227;-73
2023/08/02 00:30:45;;;;;;;3.92;2.92;;;21.50;99.90;;;;;;5090125;28;20237;-73
2023/08/02 00:33:12;;;;;;;2.15;1.95;;;21.50;99.90;;;;;;5090706;28;20205;-73
2023/08/02 00:35:44;;;;;;;2.60;2.08;;;21.50;99.90;;;;;;5090735;28;20302;-73
2023/08/02 00:38:11;;;;;;;1.75;1.58;;;21.40;99.90;;;;;;5090255;28;20202;-74
2023/08/02 00:40:38;;;;;;;2.75;1.60;;;21.40;99.90;;;;;;5090818;28;20244;-73
2023/08/02 00:43:05;;;;;;;1.42;1.25;;;21.40;99.90;;;;;;5090005;28;20314;-73
2023/08/02 00:45:34;;;;;;;1.65;1.50;;;21.40;99.90;;;;;;5090233;28;20213;-73
2023/08/02 00:48:01;;;;;;;4.13;2.08;;;21.40;99.90;;;;;;5089945;28;20205;-73
2023/08/02 00:50:31;;;;;;;2.13;1.95;;;21.30;99.90;;;;;;5090490;28;20286;-73
2023/08/02 00:52:59;;;;;;;2.40;1.73;;;21.20;99.90;;;;;;5089859;28;20681;-73
2023/08/02 00:55:26;;;;;;;1.85;1.70;;;21.20;99.90;;;;;;5090298;28;20201;-74
2023/08/02 00:57:53;;;;;;;2.78;1.58;;;21.20;99.90;;;;;;5089828;28;20262;-73
2023/08/02 01:00:20;;;;;;;4.85;4.10;;;21.20;99.90;;;;;;5089630;28;20711;-72
2023/08/02 01:02:48;;;;;;;2.85;2.58;;;21.20;99.90;;;;;;5089867;28;20291;-73
2023/08/02 01:05:15;;;;;;;3.50;3.20;;;21.20;99.90;;;;;;5090127;28;20230;-74
2023/08/02 01:07:47;;;;;;;3.30;2.15;;;21.20;99.90;;;;;;5089763;28;20665;-73
2023/08/02 01:10:20;;;;;;;4.20;1.58;;;21.20;99.90;;;;;;5089815;28;20248;-73
2023/08/02 01:12:48;;;;;;;5.50;2.00;;;21.20;99.90;;;;;;5090062;28;20233;-74
2023/08/02 01:15:16;;;;;;;3.38;1.48;;;21.10;99.90;;;;;;5089828;28;20210;-73
2023/08/02 01:17:44;;;;;;;1.85;1.75;;;21.20;99.90;;;;;;5089711;28;20252;-74
2023/08/02 01:20:12;;;;;;;2.25;1.75;;;21.20;99.90;;;;;;5089819;28;20233;-73
2023/08/02 01:22:39;;;;;;;1.60;1.50;;;21.20;99.90;;;;;;5089952;28;20720;-73
2023/08/02 01:25:07;;;;;;;1.80;1.70;;;21.20;99.90;;;;;;5090105;28;20252;-73
2023/08/02 01:27:36;;;;;;;1.95;1.75;;;21.10;99.90;;;;;;5090123;28;20233;-73
2023/08/02 01:30:07;;;;;;;1.92;1.73;;;21.10;99.90;;;;;;5093346;28;20294;-74
2023/08/02 01:32:34;;;;;;;1.60;1.50;;;21.10;99.90;;;;;;5093657;28;20201;-73
2023/08/02 01:35:02;;;;;;;2.65;1.48;;;21.10;99.90;;;;;;5093383;28;20236;-73
2023/08/02 01:37:32;;;;;;;1.75;1.55;;;21.10;99.90;;;;;;5093443;28;20241;-73
2023/08/02 01:39:59;;;;;;;2.55;1.98;;;21.10;99.90;;;;;;5093175;28;20594;-73
2023/08/02 01:42:26;;;;;;;1.75;1.63;;;21.00;99.90;;;;;;5093678;28;20304;-73
2023/08/02 01:44:53;;;;;;;2.78;1.77;;;20.90;99.90;;;;;;5092818;28;20228;-73
2023/08/02 01:47:20;;;;;;;2.00;1.73;;;20.90;99.90;;;;;;5093337;28;20266;-73
2023/08/02 01:49:47;;;;;;;2.63;2.00;;;20.90;99.90;;;;;;5092739;28;20201;-74
2023/08/02 01:52:14;;;;;;;1.88;1.70;;;20.80;99.90;;;;;;5093573;28;20248;-73
2023/08/02 01:54:42;;;;;;;2.58;1.90;;;20.90;99.90;;;;;;5093359;28;20286;-73
2023/08/02 01:57:09;;;;;;;3.55;1.83;;;20.80;99.90;;;;;;5093257;28;20236;-73
2023/08/02 01:59:36;;;;;;;2.67;1.92;;;20.80;99.90;;;;;;5093471;28;20209;-73
2023/08/02 02:02:04;;;;;;;1.63;1.52;;;20.80;99.90;;;;;;5092355;28;20688;-73
2023/08/02 02:04:31;;;;;;;2.92;1.95;;;20.70;99.90;;;;;;5093073;28;20237;-73
2023/08/02 02:07:16;;;;;;;1.80;1.70;;;20.60;99.90;;;;;;5092631;28;20233;-73
2023/08/02 02:09:44;;;;;;;1.70;1.48;;;20.60;99.90;;;;;;5092588;28;20259;-74
2023/08/02 02:12:11;;;;;;;2.72;1.30;;;20.60;99.90;;;;;;5092585;28;20241;-73
2023/08/02 02:14:38;;;;;;;2.03;1.92;;;20.60;99.90;;;;;;5093166;28;20239;-73
2023/08/02 02:17:05;;;;;;;2.03;1.60;;;20.70;99.90;;;;;;5092709;28;20286;-73
2023/08/02 02:19:32;;;;;;;1.77;1.63;;;20.60;99.90;;;;;;5093087;28;20582;-73
2023/08/02 02:21:59;;;;;;;4.75;1.60;;;20.60;99.90;;;;;;5092349;28;20763;-73
2023/08/02 02:24:26;;;;;;;3.58;1.73;;;20.60;99.90;;;;;;5092549;28;20276;-73
2023/08/02 02:26:54;;;;;;;2.28;1.85;;;20.50;99.90;;;;;;5091733;28;20684;-73
2023/08/02 02:29:21;;;;;;;1.55;1.45;;;20.50;99.90;;;;;;5106108;28;20239;-73
2023/08/02 02:31:48;;;;;;;2.47;1.70;;;20.50;99.90;;;;;;5112469;28;20234;-74
2023/08/02 02:34:15;;;;;;;1.83;1.73;;;20.50;99.90;;;;;;5113151;27;20236;-74
2023/08/02 02:36:43;;;;;;;4.18;2.10;;;20.50;99.90;;;;;;5112612;28;20279;-73
2023/08/02 02:39:10;;;;;;;1.98;1.70;;;20.50;99.90;;;;;;5112541;28;20205;-73
2023/08/02 02:41:37;;;;;;;2.10;1.70;;;20.50;99.90;;;;;;5112413;28;20225;-73
2023/08/02 02:44:05;;;;;;;2.15;1.95;;;20.40;99.90;;;;;;5112507;28;20236;-73
2023/08/02 02:46:32;;;;;;;2.75;1.80;;;20.40;99.90;;;;;;5112241;28;20646;-73
2023/08/02 02:48:59;;;;;;;2.33;1.55;;;20.30;99.90;;;;;;5112464;27;20314;-73
2023/08/02 02:51:26;;;;;;;2.33;2.13;;;20.40;99.90;;;;;;5112511;28;20236;-72
2023/08/02 02:53:53;;;;;;;2.25;2.05;;;20.30;99.90;;;;;;5112152;28;20244;-73
2023/08/02 02:56:20;;;;;;;2.45;2.25;;;20.20;99.90;;;;;;5112035;28;20205;-73
2023/08/02 02:58:47;;;;;;;1.90;1.58;;;20.20;99.90;;;;;;5112179;28;20267;-72
2023/08/02 03:01:15;;;;;;;3.50;2.65;;;20.20;99.90;;;;;;5112509;28;20248;-73
2023/08/02 03:03:42;;;;;;;2.38;2.17;;;20.30;99.90;;;;;;5111746;28;20271;-73
2023/08/02 03:06:09;;;;;;;3.08;1.98;;;20.20;99.90;;;;;;5112452;28;20439;-73
2023/08/02 03:08:36;;;;;;;2.13;1.80;;;20.20;99.90;;;;;;5112457;28;20273;-72
2023/08/02 03:11:02;;;;;;;2.08;1.85;;;20.20;99.90;;;;;;5111556;28;20262;-73
2023/08/02 03:13:29;;;;;;;1.80;1.70;;;20.20;99.90;;;;;;5112301;28;20248;-73
2023/08/02 03:15:56;;;;;;;1.80;1.70;;;20.20;99.90;;;;;;5111828;28;20248;-73
2023/08/02 03:18:24;;;;;;;1.98;1.80;;;20.20;99.90;;;;;;5112253;28;20259;-73
2023/08/02 03:20:51;;;;;;;3.95;1.73;;;20.20;99.90;;;;;;5111528;28;20700;-73
2023/08/02 03:23:18;;;;;;;2.58;1.92;;;20.10;99.90;;;;;;5111845;28;20278;-73
2023/08/02 03:25:45;;;;;;;2.60;2.10;;;20.00;99.90;;;;;;5111081;28;20232;-73
2023/08/02 03:28:12;;;;;;;1.88;1.77;;;20.00;99.90;;;;;;5111773;28;20205;-73
2023/08/02 03:30:39;;;;;;;2.17;1.95;;;20.10;99.90;;;;;;5111730;28;20263;-73
2023/08/02 03:33:06;;;;;;;2.20;1.92;;;20.10;99.90;;;;;;5111681;28;20244;-73
2023/08/02 03:35:34;;;;;;;2.72;1.92;;;20.10;99.90;;;;;;5111702;28;20236;-73
2023/08/02 03:38:01;;;;;;;4.30;2.55;;;20.10;99.90;;;;;;5111216;28;20240;-73
2023/08/02 03:40:28;;;;;;;2.17;1.90;;;20.10;99.90;;;;;;5111643;28;20232;-73
2023/08/02 03:42:55;;;;;;;2.53;2.28;;;20.00;99.90;;;;;;5110767;28;20277;-73
2023/08/02 03:45:22;;;;;;;3.22;2.22;;;20.00;99.90;;;;;;5111842;28;20247;-73
2023/08/02 03:47:48;;;;;;;2.25;2.05;;;20.00;99.90;;;;;;5110799;28;20687;-74
2023/08/02 03:50:15;;;;;;;2.40;2.20;;;20.10;99.90;;;;;;5111301;28;20257;-72
2023/08/02 03:52:44;;;;;;;3.72;2.40;;;20.00;99.90;;;;;;5110175;28;20240;-74
2023/08/02 03:55:11;;;;;;;2.67;2.22;;;20.00;99.90;;;;;;5111165;28;20232;-74
2023/08/02 03:57:38;;;;;;;4.18;2.38;;;19.90;99.90;;;;;;5111772;28;20236;-72
2023/08/02 04:00:06;;;;;;;2.60;1.80;;;20.00;99.90;;;;;;5111119;28;20251;-73
2023/08/02 04:02:33;;;;;;;2.53;2.33;;;19.90;99.90;;;;;;5081704;28;20232;-73
2023/08/02 04:05:00;;;;;;;2.05;1.92;;;19.90;99.90;;;;;;5110785;28;20413;-73
2023/08/02 04:07:27;;;;;;;2.30;2.10;;;19.80;99.90;;;;;;5110978;28;20295;-73
2023/08/02 04:09:55;;;;;;;2.13;1.98;;;19.90;99.90;;;;;;5110816;28;20240;-73
2023/08/02 04:12:22;;;;;;;2.25;1.92;;;19.90;99.90;;;;;;5111101;28;20259;-73
2023/08/02 04:14:49;;;;;;;2.65;2.17;;;19.90;99.90;;;;;;5110617;28;20245;-73
2023/08/02 04:17:16;;;;;;;2.08;1.85;;;19.80;99.90;;;;;;5111228;28;20239;-73
2023/08/02 04:19:43;;;;;;;2.03;1.80;;;19.80;99.90;;;;;;5111037;28;20205;-73
2023/08/02 04:22:10;;;;;;;2.25;1.90;;;19.80;99.90;;;;;;5111012;27;20266;-73
2023/08/02 04:24:36;;;;;;;1.73;1.63;;;19.80;99.90;;;;;;5111266;28;20279;-73
2023/08/02 04:27:05;;;;;;;2.47;2.13;;;19.70;99.90;;;;;;5110359;28;20255;-73
2023/08/02 04:29:32;;;;;;;1.92;1.80;;;19.80;99.90;;;;;;5110748;28;20283;-73
2023/08/02 04:31:59;;;;;;;3.35;2.38;;;19.80;99.90;;;;;;5110466;28;20244;-73
2023/08/02 04:34:26;;;;;;;2.53;1.85;;;19.70;99.90;;;;;;5110616;28;20672;-73
2023/08/02 04:36:53;;;;;;;1.98;1.80;;;19.60;99.90;;;;;;5110284;28;20244;-72
2023/08/02 04:39:20;;;;;;;3.65;2.83;;;19.60;99.90;;;;;;5110724;28;20232;-73
2023/08/02 04:41:47;;;;;;;2.28;2.10;;;19.60;99.90;;;;;;5110425;28;20233;-73
2023/08/02 04:44:15;;;;;;;2.08;1.98;;;19.70;99.90;;;;;;5110485;28;20263;-72
2023/08/02 04:46:42;;;;;;;2.40;2.20;;;19.70;99.90;;;;;;5110405;28;20239;-73
2023/08/02 04:49:09;;;;;;;2.50;2.15;;;19.70;99.90;;;;;;5110870;28;20236;-73
2023/08/02 04:51:37;;;;;;;2.60;1.70;;;19.80;99.90;;;;;;5111037;28;20304;-72
2023/08/02 04:54:04;;;;;;;4.22;2.60;;;19.80;99.90;;;;;;5110625;28;20670;-73
2023/08/02 04:56:31;;;;;;;3.25;2.50;;;19.80;99.90;;;;;;5110496;28;20244;-73
2023/08/02 04:58:58;;;;;;;2.20;1.92;;;19.80;99.90;;;;;;5109918;28;20747;-72
2023/08/02 05:01:27;;;;;;;2.20;2.10;;;19.80;99.90;;;;;;5110216;28;20756;-72
2023/08/02 05:03:54;;;;;;;2.55;2.33;;;19.70;99.90;;;;;;5112268;28;20260;-73
2023/08/02 05:06:21;;;;;;;2.22;2.03;;;19.70;99.90;;;;;;5114173;28;20244;-72
2023/08/02 05:08:48;;;;;;;2.38;2.17;;;19.70;99.90;;;;;;5114325;28;20233;-73
2023/08/02 05:11:15;;;;;;;2.08;1.67;;;19.80;99.90;;;;;;5114700;28;20243;-73
2023/08/02 05:13:41;;;;;;;2.47;2.28;;;19.80;99.90;;;;;;5114057;28;20251;-73
2023/08/02 05:16:13;;;;;;;4.70;2.35;;;19.70;99.90;;;;;;5114636;28;20244;-73
2023/08/02 05:18:42;;;;;;;4.05;2.55;;;19.80;99.90;;;;;;5114052;28;20215;-73
2023/08/02 05:21:13;;;;;;;3.25;2.08;;;19.90;99.90;;;;;;5114317;28;20232;-73
2023/08/02 05:23:40;;;;;;;4.63;2.67;;;19.90;99.90;;;;;;5114039;28;20679;-73
2023/08/02 05:26:07;;;;;;;1.92;1.83;;;20.00;99.90;;;;;;5114501;28;20236;-72
2023/08/02 05:28:34;;;;;;;3.22;2.25;;;20.00;99.90;;;;;;5114240;28;20205;-73
2023/08/02 05:31:01;;;;;;;3.72;2.15;;;20.00;99.90;;;;;;5114086;28;20248;-73
2023/08/02 05:33:28;;;;;;;1.77;1.67;;;20.10;99.90;;;;;;5113831;28;20251;-73
2023/08/02 05:35:56;;;;;;;2.55;1.90;;;20.10;99.90;;;;;;5113478;28;20247;-73
2023/08/02 05:38:23;;;;;;;4.80;2.50;;;19.80;99.90;;;;;;5114010;28;20244;-72
2023/08/02 05:40:50;;;;;;;4.22;2.78;;;19.80;99.90;;;;;;5113265;28;20703;-73
2023/08/02 05:43:17;;;;;;;2.42;2.20;;;19.60;99.90;;;;;;5113723;27;20236;-73
2023/08/02 05:45:44;;;;;;;3.80;2.58;;;19.70;99.90;;;;;;5113618;28;20205;-73
2023/08/02 05:48:11;;;;;;;2.78;2.58;;;19.90;99.90;;;;;;5113602;28;20236;-73
2023/08/02 05:50:38;;;;;;;3.05;2.22;;;19.90;99.90;;;;;;5114011;28;20719;-72
2023/08/02 05:53:06;;;;;;;5.90;2.90;;;20.00;99.90;;;;;;5113320;28;20201;-73
2023/08/02 05:55:33;;;;;;;4.07;3.17;;;20.10;99.90;;;;;;5113627;28;20240;-73
2023/08/02 05:58:00;;;;;;;3.63;2.97;;;20.30;99.90;;;;;;5112924;28;20684;-72
2023/08/02 06:00:26;;;;;;;4.68;3.53;;;20.20;99.90;;;;;;5100456;28;20213;-75
2023/08/02 06:02:53;;;;;;;5.90;3.42;;;20.20;99.90;;;;;;5093593;28;20237;-75
2023/08/02 06:05:20;;;;;;;4.25;2.80;;;20.30;99.90;;;;;;5086839;28;20269;-70
2023/08/02 06:07:47;;;;;;;2.90;2.40;;;20.30;99.90;;;;;;5085813;28;20209;-69
2023/08/02 06:10:15;;;;;;;3.47;2.60;;;20.50;99.90;;;;;;5093050;28;20233;-70
2023/08/02 06:12:43;;;;;;;2.45;2.25;;;20.40;99.90;;;;;;5092749;28;20245;-70
2023/08/02 06:15:11;;;;;;;2.60;2.40;;;20.50;99.90;;;;;;5091690;28;20209;-69
2023/08/02 06:17:38;;;;;;;3.72;2.47;;;20.70;99.90;;;;;;5092822;28;20673;-70
2023/08/02 06:20:06;;;;;;;3.00;2.67;;;20.80;99.90;;;;;;5092138;28;20206;-70
2023/08/02 06:22:33;;;;;;;3.90;3.10;;;21.00;99.90;;;;;;5092649;28;20689;-69
2023/08/02 06:25:00;;;;;;;3.72;3.33;;;20.90;99.90;;;;;;5091757;28;20272;-70
2023/08/02 06:27:28;;;;;;;2.38;2.17;;;20.90;99.90;;;;;;5092718;28;20240;-80
2023/08/02 06:29:55;;;;;;;3.00;2.75;;;21.00;99.90;;;;;;5098582;28;20682;-78
2023/08/02 06:32:22;;;;;;;3.80;2.25;;;21.10;99.90;;;;;;5094476;28;20229;-81
2023/08/02 06:34:49;;;;;;;3.30;2.35;;;21.20;99.90;;;;;;5092298;28;20213;-80
2023/08/02 06:37:16;;;;;;;4.13;2.00;;;21.20;99.90;;;;;;5106035;28;20228;-80
2023/08/02 06:39:43;;;;;;;2.55;1.92;;;21.40;99.90;;;;;;5091991;28;20236;-79
2023/08/02 06:42:10;;;;;;;2.05;1.83;;;21.50;99.90;;;;;;5092426;28;20252;-73
2023/08/02 06:44:38;;;;;;;3.15;1.95;;;21.60;99.90;;;;;;5092604;28;20261;-80
2023/08/02 06:47:05;;;;;;;1.83;1.73;;;21.70;99.90;;;;;;5091964;28;20241;-79
2023/08/02 06:49:35;;;;;;;2.95;2.33;;;21.70;99.90;;;;;;5091400;28;20248;-81
2023/08/02 06:52:02;;;;;;;4.32;2.10;;;21.90;99.90;;;;;;5091318;28;20209;-82
2023/08/02 06:54:29;;;;;;;2.15;1.95;;;21.90;99.90;;;;;;5092062;28;20328;-82
2023/08/02 06:56:56;;;;;;;3.20;1.70;;;21.90;99.90;;;;;;5091394;28;20255;-71
2023/08/02 06:59:23;;;;;;;2.10;1.80;;;22.10;99.90;;;;;;5091918;28;20262;-78
2023/08/02 07:01:51;;;;;;;2.53;1.92;;;22.30;99.90;;;;;;5091275;28;20212;-80
2023/08/02 07:04:18;;;;;;;1.83;1.55;;;22.70;99.90;;;;;;5091697;28;20229;-80
2023/08/02 07:06:45;;;;;;;2.72;1.90;;;23.10;99.90;;;;;;5091238;28;20233;-79
2023/08/02 07:09:12;;;;;;;4.97;2.22;;;23.00;99.90;;;;;;5091984;28;20237;-79
2023/08/02 07:11:39;;;;;;;4.43;2.60;;;22.90;99.90;;;;;;5091981;28;20241;-80
2023/08/02 07:14:06;;;;;;;6.95;2.92;;;22.80;99.90;;;;;;5091679;28;20253;-78
2023/08/02 07:16:32;;;;;;;2.97;2.33;;;22.90;99.90;;;;;;5091194;28;20270;-78
2023/08/02 07:19:02;;;;;;;6.63;3.05;;;22.70;99.90;;;;;;5091234;28;20693;-79
2023/08/02 07:21:30;;;;;;;2.58;2.38;;;22.80;99.90;;;;;;5091675;28;20209;-80
2023/08/02 07:23:57;;;;;;;2.15;1.50;;;22.90;99.90;;;;;;5091110;28;20719;-70
2023/08/02 07:26:23;;;;;;;3.08;2.17;;;23.00;99.90;;;;;;5098620;28;20254;-70
2023/08/02 07:28:50;;;;;;;2.42;2.22;;;22.90;99.90;;;;;;5111414;28;20244;-69
2023/08/02 07:31:17;;;;;;;2.20;2.10;;;23.00;99.90;;;;;;5111548;28;20640;-77
2023/08/02 07:33:46;;;;;;;2.40;1.67;;;23.10;99.90;;;;;;5111444;28;20685;-69
2023/08/02 07:36:19;;;;;;;1.98;1.58;;;23.30;99.90;;;;;;5111785;28;20253;-74
2023/08/02 07:38:47;;;;;;;2.10;1.73;;;23.50;99.90;;;;;;5111442;28;20301;-70
2023/08/02 07:41:14;;;;;;;2.80;1.73;;;23.60;99.90;;;;;;5111519;28;20670;-70
2023/08/02 07:43:41;;;;;;;1.73;1.60;;;23.60;99.90;;;;;;5111638;28;20236;-69
2023/08/02 07:46:16;;;;;;;4.50;1.83;;;23.50;99.90;;;;;;5111317;28;20240;-70
2023/08/02 07:48:44;;;;;;;1.77;1.67;;;23.60;99.90;;;;;;5111405;28;20249;-69
2023/08/02 07:51:11;;;;;;;2.53;1.67;;;23.70;99.90;;;;;;5111415;28;20228;-74
2023/08/02 07:53:39;;;;;;;3.22;2.08;;;23.70;99.90;;;;;;5107116;28;20993;-75
2023/08/02 07:56:07;;;;;;;4.20;1.70;;;23.80;99.90;;;;;;5092749;28;20245;-73
2023/08/02 07:58:34;;;;;;;1.88;1.77;;;23.90;99.90;;;;;;5098250;28;20217;-72
2023/08/02 08:01:06;;;;;;;2.88;1.58;;;24.00;99.90;;;;;;5089971;28;20241;-73
2023/08/02 08:03:33;;;;;;;2.88;1.30;;;24.10;99.90;;;;;;5079845;28;20201;-74
2023/08/02 08:06:00;;;;;;;3.47;2.00;;;24.10;99.90;;;;;;5090547;28;20272;-75
2023/08/02 08:08:26;;;;;;;1.63;1.42;;;24.20;99.90;;;;;;5090656;28;20298;-73
2023/08/02 08:10:55;;;;;;;2.60;1.90;;;24.30;99.90;;;;;;5090095;28;20241;-72
2023/08/02 08:13:22;;;;;;;2.08;1.88;;;24.40;99.90;;;;;;5090416;28;20201;-73
2023/08/02 08:15:49;;;;;;;3.28;1.38;;;24.40;99.90;;;;;;5088946;28;20237;-74
2023/08/02 08:18:15;;;;;;;3.65;1.83;;;24.40;99.90;;;;;;5090487;28;20701;-73
2023/08/02 08:20:42;;;;;;;3.00;2.00;;;24.60;99.90;;;;;;5089567;28;20267;-72
2023/08/02 08:23:09;;;;;;;2.88;1.83;;;24.60;99.90;;;;;;5090656;28;20248;-72
2023/08/02 08:25:36;;;;;;;2.63;1.83;;;24.70;99.90;;;;;;5084578;28;20253;-73
2023/08/02 08:28:06;;;;;;;2.33;1.60;;;24.80;99.90;;;;;;5090378;28;20454;-73
2023/08/02 08:30:33;;;;;;;2.35;1.67;;;24.80;99.90;;;;;;5088034;28;20229;-74
2023/08/02 08:32:59;;;;;;;1.77;1.63;;;24.90;99.90;;;;;;5090201;28;20294;-74
2023/08/02 08:35:26;;;;;;;2.05;1.83;;;25.00;99.90;;;;;;5090308;28;20247;-74
2023/08/02 08:37:53;;;;;;;1.98;1.60;;;25.10;99.90;;;;;;5110003;28;20213;-74
2023/08/02 08:40:20;;;;;;;1.88;1.77;;;25.30;99.90;;;;;;5115121;28;20640;-73
2023/08/02 08:42:51;;;;;;;2.25;1.60;;;25.40;99.90;;;;;;5114400;28;20197;-75
2023/08/02 08:45:23;;;;;;;2.78;1.65;;;25.60;99.90;;;;;;5114931;28;20280;-73
2023/08/02 08:47:51;;;;;;;2.63;1.98;;;25.50;99.90;;;;;;5114593;28;20261;-73
2023/08/02 08:50:20;;;;;;;2.40;1.80;;;25.60;99.90;;;;;;5114906;28;20240;-72
2023/08/02 08:52:50;;;;;;;3.85;2.65;;;26.30;99.90;;;;;;5114129;28;20247;-72
2023/08/02 08:55:17;;;;;;;2.58;2.38;;;26.40;99.90;;;;;;5114992;28;20282;-74
2023/08/02 08:57:45;;;;;;;2.17;1.98;;;26.20;99.90;;;;;;5114069;28;20592;-72
2023/08/02 09:00:14;;;;;;;1.98;1.75;;;26.30;99.90;;;;;;5111023;28;20222;-73
2023/08/02 09:02:43;;;;;;;2.40;1.85;;;26.80;99.90;;;;;;5096062;28;20292;-74
2023/08/02 09:05:11;;;;;;;2.05;1.70;;;27.00;99.90;;;;;;5093652;28;20253;-74
2023/08/02 09:07:38;;;;;;;3.55;2.00;;;27.00;99.90;;;;;;5094901;28;20240;-74
2023/08/02 09:10:06;;;;;;;5.68;2.70;;;26.90;99.90;;;;;;5094099;28;20201;-74
2023/08/02 09:12:44;;;;;;;2.28;2.08;;;26.90;99.90;;;;;;5093957;28;20233;-74
2023/08/02 09:15:11;;;;;;;4.88;3.50;;;27.00;99.90;;;;;;5093784;28;20677;-73
2023/08/02 09:17:50;;;;;;;2.50;2.30;;;27.50;99.90;;;;;;5094073;28;20244;-73
2023/08/02 09:20:18;;;;;;;3.80;3.47;;;28.30;99.90;;;;;;5093913;28;20203;-72
2023/08/02 09:22:45;;;;;;;3.33;3.03;;;28.30;99.90;;;;;;5111889;28;20236;-73
2023/08/02 09:25:24;;;;;;;2.83;2.63;;;29.00;99.90;;;;;;5114329;28;20315;-74
2023/08/02 09:27:52;;;;;;;3.03;2.78;;;30.60;99.90;;;;;;5113573;28;20633;-73
2023/08/02 09:30:29;;;;;;;3.70;3.20;;;29.40;99.90;;;;;;5114197;28;20263;-74
2023/08/02 09:33:02;;;;;;;3.40;2.78;;;28.80;99.90;;;;;;5113652;28;20232;-72
2023/08/02 09:35:33;;;;;;;3.67;3.08;;;29.20;99.90;;;;;;5114029;28;21140;-73
2023/08/02 09:38:00;;;;;;;3.00;2.70;;;28.90;99.90;;;;;;5113696;28;20213;-74
2023/08/02 09:40:38;;;;;;;3.45;3.15;;;28.40;99.90;;;;;;5113719;28;20672;-73
2023/08/02 09:43:09;;;;;;;3.58;3.25;;;28.70;99.90;;;;;;5113378;28;20204;-73
2023/08/02 09:45:36;;;;;;;3.00;2.80;;;29.00;99.90;;;;;;5114312;28;20260;-73
2023/08/02 09:48:05;;;;;;;3.60;2.97;;;28.60;99.90;;;;;;5113287;28;20247;-73
2023/08/02 09:50:33;;;;;;;4.13;3.42;;;28.50;99.90;;;;;;5112425;28;20243;-74
2023/08/02 09:53:14;;;;;;;3.47;2.47;;;28.80;99.90;;;;;;5113033;28;20204;-72
2023/08/02 09:55:44;;;;;;;4.07;3.30;;;28.70;99.90;;;;;;5113653;27;20240;-74
2023/08/02 09:58:13;;;;;;;2.92;2.30;;;28.60;99.90;;;;;;5113779;28;20242;-73
2023/08/02 10:00:40;;;;;;;3.47;3.17;;;29.80;99.90;;;;;;5113679;28;20245;-74
2023/08/02 10:03:10;;;;;;;3.22;2.92;;;31.40;99.90;;;;;;5113516;28;20258;-73
2023/08/02 10:05:42;;;;;;;3.20;2.90;;;31.40;99.90;;;;;;5113743;28;20263;-73
2023/08/02 10:08:11;;;;;;;5.30;3.53;;;36.30;99.90;;;;;;5113754;28;20240;-73
2023/08/02 10:10:40;;;;;;;3.53;3.17;;;39.70;99.90;;;;;;5113925;28;20650;-73
2023/08/02 10:13:09;;;;;;;3.00;2.70;;;42.20;99.90;;;;;;5113577;27;20208;-74
2023/08/02 10:15:38;;;;;;;3.80;3.20;;;40.80;99.90;;;;;;5113598;28;20235;-73
2023/08/02 10:18:06;;;;;;;3.60;2.90;;;41.60;99.90;;;;;;5113119;28;20204;-73
2023/08/02 10:20:34;;;;;;;3.15;2.90;;;38.90;99.90;;;;;;5085528;28;20196;-74
2023/08/02 10:23:04;;;;;;;3.45;3.15;;;35.90;99.90;;;;;;5113170;28;21130;-74
2023/08/02 10:25:34;;;;;;;3.30;3.00;;;35.40;99.90;;;;;;5113145;28;20647;-73
2023/08/02 10:28:02;;;;;;;3.88;3.13;;;36.10;99.90;;;;;;5112728;27;20998;-74
2023/08/02 10:30:30;;;;;;;3.42;3.03;;;36.50;99.90;;;;;;5112990;28;20238;-74
2023/08/02 10:33:13;;;;;;;3.13;2.92;;;37.10;99.90;;;;;;5112704;28;20200;-73
2023/08/02 10:35:59;;;;;;;3.38;3.08;;;34.10;99.90;;;;;;5112879;28;20255;-74
2023/08/02 10:38:27;;;;;;;2.60;2.40;;;32.80;99.90;;;;;;5112979;27;20208;-72
2023/08/02 10:41:04;;;;;;;3.08;2.53;;;32.30;99.90;;;;;;5111982;28;20211;-72
2023/08/02 10:43:31;;;;;;;6.72;3.20;;;31.70;99.90;;;;;;5113095;28;20695;-74
2023/08/02 10:46:17;;;;;;;3.20;2.70;;;30.90;99.90;;;;;;5112317;27;20263;-74
2023/08/02 10:48:44;;;;;;;5.18;4.05;;;30.20;99.90;;;;;;5112230;28;20756;-73
2023/08/02 10:51:32;;;;;;;3.00;2.65;;;29.90;99.90;;;;;;5112394;28;20240;-72
2023/08/02 10:54:16;;;;;;;5.35;3.20;;;29.70;99.90;;;;;;5112221;28;20239;-72
2023/08/02 10:57:10;;;;;;;2.35;2.15;;;29.90;99.90;;;;;;5112247;28;20203;-73
2023/08/02 10:59:39;;;;;;;5.07;2.70;;;30.00;99.90;;;;;;5112545;28;20684;-72
2023/08/02 11:02:08;;;;;;;3.50;2.78;;;30.00;99.90;;;;;;5101315;28;20692;-74
2023/08/02 11:04:37;;;;;;;3.85;2.25;;;30.30;99.90;;;;;;5092166;28;20213;-72
2023/08/02 11:07:13;;;;;;;3.92;2.97;;;30.50;99.90;;;;;;5091567;28;20609;-72
2023/08/02 11:09:40;;;;;;;2.72;2.45;;;30.40;99.90;;;;;;5091421;28;20620;-72
2023/08/02 11:12:11;;;;;;;3.90;2.42;;;30.10;99.90;;;;;;5091998;28;20692;-72
2023/08/02 11:14:39;;;;;;;3.42;3.00;;;29.90;99.90;;;;;;5092207;28;20236;-74
2023/08/02 11:17:06;;;;;;;2.92;2.65;;;29.60;99.90;;;;;;5091676;28;20296;-73
2023/08/02 11:19:33;;;;;;;2.17;1.95;;;29.50;99.90;;;;;;5091785;28;20245;-73
2023/08/02 11:22:00;;;;;;;3.25;2.95;;;29.60;99.90;;;;;;5091184;28;20688;-73
2023/08/02 11:24:29;;;;;;;2.25;2.05;;;29.60;99.90;;;;;;5091243;28;20587;-73
2023/08/02 11:26:56;;;;;;;3.45;3.08;;;29.90;99.90;;;;;;5090691;28;20278;-72
2023/08/02 11:29:23;;;;;;;3.03;2.83;;;30.30;99.90;;;;;;5091700;28;20259;-72
2023/08/02 11:31:51;;;;;;;5.00;2.83;;;30.30;99.90;;;;;;5090773;28;20232;-72
2023/08/02 11:34:19;;;;;;;4.47;3.17;;;30.00;99.90;;;;;;5091477;28;20237;-72
2023/08/02 11:36:46;;;;;;;3.88;2.45;;;29.60;99.90;;;;;;5100568;28;20215;-73
2023/08/02 11:39:15;;;;;;;4.82;2.83;;;29.80;99.90;;;;;;5111173;28;20258;-72
2023/08/02 11:41:43;;;;;;;3.38;3.08;;;29.70;99.90;;;;;;5111690;28;20197;-73
2023/08/02 11:44:16;;;;;;;3.38;2.47;;;29.50;99.90;;;;;;5111665;28;20232;-72
2023/08/02 11:46:44;;;;;;;2.97;2.40;;;29.50;99.90;;;;;;5111326;28;20271;-73
2023/08/02 11:49:11;;;;;;;4.50;2.05;;;29.80;99.90;;;;;;5111647;28;20688;-73
2023/08/02 11:51:42;;;;;;;2.75;2.55;;;30.20;99.90;;;;;;5111897;28;20289;-74
2023/08/02 11:54:09;;;;;;;2.60;2.30;;;30.30;99.90;;;;;;5111696;28;20205;-73
2023/08/02 11:56:37;;;;;;;4.72;2.88;;;30.40;99.90;;;;;;5111703;28;20240;-72
2023/08/02 11:59:08;;;;;;;2.90;2.53;;;30.40;99.90;;;;;;5111386;28;20201;-73
2023/08/02 12:01:35;;;;;;;3.13;2.83;;;30.30;99.90;;;;;;5111412;28;20665;-73
2023/08/02 12:04:04;;;;;;;4.30;3.20;;;30.10;99.90;;;;;;5111096;28;20566;-74
2023/08/02 12:06:46;;;;;;;3.67;2.33;;;30.20;99.90;;;;;;5110677;28;20243;-74
2023/08/02 12:09:14;;;;;;;3.13;2.42;;;30.40;99.90;;;;;;5111338;28;20609;-72
2023/08/02 12:11:41;;;;;;;2.78;2.58;;;30.30;99.90;;;;;;5111030;28;20219;-74
2023/08/02 12:14:09;;;;;;;2.72;2.42;;;30.70;99.90;;;;;;5110822;28;20289;-73
2023/08/02 12:16:40;;;;;;;2.55;2.30;;;30.80;99.90;;;;;;5111342;28;20753;-73
2023/08/02 12:19:07;;;;;;;4.00;2.80;;;31.50;99.90;;;;;;5111013;28;20249;-73
2023/08/02 12:21:34;;;;;;;4.15;2.47;;;31.50;99.90;;;;;;5111022;28;20337;-73
2023/08/02 12:24:11;;;;;;;3.33;2.50;;;31.30;99.90;;;;;;5110878;28;20293;-72
2023/08/02 12:26:39;;;;;;;3.00;2.05;;;31.10;99.90;;;;;;5106736;28;20282;-73
2023/08/02 12:29:06;;;;;;;2.70;2.28;;;31.00;99.90;;;;;;5093799;28;20295;-73
2023/08/02 12:31:43;;;;;;;4.38;3.63;;;31.10;99.90;;;;;;5082240;28;20233;-74
2023/08/02 12:34:10;;;;;;;2.53;2.33;;;31.30;99.90;;;;;;5088078;28;20236;-73
2023/08/02 12:36:37;;;;;;;2.78;2.53;;;31.10;99.90;;;;;;5098923;28;20296;-73
2023/08/02 12:39:04;;;;;;;3.08;2.88;;;30.70;99.90;;;;;;5107636;28;20672;-73
2023/08/02 12:41:32;;;;;;;3.38;2.72;;;30.10;99.90;;;;;;5090365;28;20205;-73
2023/08/02 12:43:59;;;;;;;3.00;2.60;;;29.90;99.90;;;;;;5090012;28;20213;-73
2023/08/02 12:46:26;;;;;;;2.63;2.22;;;29.90;99.90;;;;;;5082288;28;20257;-73
2023/08/02 12:48:54;;;;;;;2.80;2.58;;;30.10;99.90;;;;;;5091858;28;20244;-73
2023/08/02 12:51:21;;;;;;;3.58;3.25;;;30.30;99.90;;;;;;5110356;28;20254;-73
2023/08/02 12:53:48;;;;;;;5.45;2.65;;;30.70;99.90;;;;;;5110412;28;20692;-72